createdAt,value
2023-01-20T00:01:22.849Z,8.65
2023-01-20T00:03:50.708Z,8.68
2023-01-20T00:06:17.611Z,8.69
2023-01-20T00:08:44.493Z,8.70
2023-01-20T00:11:12.479Z,8.69
2023-01-20T00:13:39.525Z,8.68
2023-01-20T00:16:09.049Z,8.70
2023-01-20T00:18:36.530Z,8.70
2023-01-20T00:21:04.721Z,8.69
2023-01-20T00:23:31.809Z,8.67
2023-01-20T00:25:58.739Z,8.64
2023-01-20T00:28:25.648Z,8.63
2023-01-20T00:30:52.473Z,8.64
2023-01-20T00:33:20.405Z,8.63
2023-01-20T00:35:47.456Z,8.61
2023-01-20T00:38:15.262Z,8.61
2023-01-20T00:40:42.206Z,8.61
2023-01-20T00:43:09.044Z,8.62
2023-01-20T00:45:35.791Z,8.63
2023-01-20T00:48:02.617Z,8.66
2023-01-20T00:50:29.392Z,8.68
2023-01-20T00:52:56.182Z,8.69
2023-01-20T00:55:23.024Z,8.67
2023-01-20T00:57:49.944Z,8.64
2023-01-20T01:00:18.575Z,8.64
2023-01-20T01:02:45.423Z,8.67
2023-01-20T01:05:13.384Z,8.67
2023-01-20T01:07:40.447Z,8.63
2023-01-20T01:10:08.208Z,8.63
2023-01-20T01:12:34.991Z,8.61
2023-01-20T01:15:01.892Z,8.61
2023-01-20T01:17:28.655Z,8.62
2023-01-20T01:19:55.645Z,8.61
2023-01-20T01:22:22.572Z,8.61
2023-01-20T01:24:49.342Z,8.62
2023-01-20T01:27:17.572Z,8.66
2023-01-20T01:29:44.471Z,8.65
2023-01-20T01:32:11.445Z,8.64
2023-01-20T01:34:38.323Z,8.69
2023-01-20T01:37:05.119Z,8.73
2023-01-20T01:39:31.915Z,8.68
2023-01-20T01:41:58.704Z,8.60
2023-01-20T01:44:26.415Z,8.54
2023-01-20T01:46:53.217Z,8.49
2023-01-20T01:49:22.874Z,8.48
2023-01-20T01:51:55.532Z,8.48
2023-01-20T01:54:23.836Z,8.47
2023-01-20T01:56:50.656Z,8.44
2023-01-20T02:45:11.074Z,7.42
2023-01-20T02:47:51.597Z,7.36
2023-01-20T02:50:25.627Z,7.36
2023-01-20T02:52:54.614Z,7.37
2023-01-20T02:55:44.434Z,7.42
2023-01-20T02:58:17.435Z,7.38
2023-01-20T03:00:53.079Z,7.38
2023-01-20T03:03:24.596Z,7.37
2023-01-20T03:05:56.374Z,7.39
2023-01-20T03:08:24.066Z,7.39
2023-01-20T03:10:51.405Z,7.40
2023-01-20T03:13:53.288Z,7.38
2023-01-20T03:16:24.172Z,7.39
2023-01-20T03:18:56.101Z,7.37
2023-01-20T03:21:23.147Z,7.34
2023-01-20T03:23:51.850Z,7.35
2023-01-20T03:26:19.854Z,7.35
2023-01-20T03:28:48.632Z,7.36
2023-01-20T03:31:34.620Z,7.35
2023-01-20T03:34:02.462Z,7.34
2023-01-20T03:36:30.111Z,7.33
2023-01-20T03:38:57.117Z,7.34
2023-01-20T03:41:49.030Z,7.36
2023-01-20T03:44:34.896Z,7.37
2023-01-20T03:47:15.984Z,7.39
2023-01-20T03:50:03.804Z,7.40
2023-01-20T03:52:58.809Z,7.38
2023-01-20T03:55:25.629Z,7.43
2023-01-20T03:58:05.401Z,7.46
2023-01-20T04:00:35.446Z,7.41
2023-01-20T04:03:05.565Z,7.39
2023-01-20T04:05:32.393Z,7.36
2023-01-20T04:08:00.669Z,7.31
2023-01-20T04:10:27.600Z,7.30
2023-01-20T04:12:54.408Z,7.35
2023-01-20T04:15:21.659Z,7.35
2023-01-20T04:17:48.516Z,7.39
2023-01-20T04:20:15.868Z,7.41
2023-01-20T04:22:48.097Z,7.38
2023-01-20T04:25:21.093Z,7.32
2023-01-20T04:27:47.904Z,7.21
2023-01-20T04:30:14.957Z,7.15
2023-01-20T04:32:41.741Z,7.11
2023-01-20T04:35:12.920Z,7.12
2023-01-20T04:37:39.868Z,7.16
2023-01-20T04:40:07.535Z,7.15
2023-01-20T04:42:34.380Z,7.11
2023-01-20T04:45:01.206Z,7.07
2023-01-20T04:47:32.065Z,7.09
2023-01-20T04:49:58.962Z,7.12
2023-01-20T04:52:25.803Z,7.04
2023-01-20T04:54:53.191Z,6.96
2023-01-20T04:57:20.316Z,6.90
2023-01-20T04:59:47.193Z,6.86
2023-01-20T05:02:14.248Z,6.82
2023-01-20T05:04:41.237Z,6.78
2023-01-20T05:07:08.089Z,6.76
2023-01-20T05:09:34.864Z,6.72
2023-01-20T05:12:02.544Z,6.65
2023-01-20T05:14:29.975Z,6.58
2023-01-20T05:16:56.734Z,6.59
2023-01-20T05:19:23.564Z,6.58
2023-01-20T05:21:50.364Z,6.53
2023-01-20T05:24:17.154Z,6.52
2023-01-20T05:26:44.086Z,6.49
2023-01-20T05:29:10.912Z,6.43
2023-01-20T05:31:43.212Z,6.39
2023-01-20T05:34:10.848Z,6.36
2023-01-20T05:36:37.611Z,6.41
2023-01-20T05:39:04.436Z,6.44
2023-01-20T05:41:31.235Z,6.46
2023-01-20T05:43:58.018Z,6.42
2023-01-20T05:46:24.932Z,6.39
2023-01-20T05:48:51.752Z,6.39
2023-01-20T05:51:18.570Z,6.38
2023-01-20T05:53:45.391Z,6.39
2023-01-20T05:56:15.878Z,6.41
2023-01-20T05:58:42.997Z,6.40
2023-01-20T06:01:11.748Z,6.43
2023-01-20T06:03:38.829Z,6.44
2023-01-20T06:06:07.675Z,6.48
2023-01-20T06:08:35.141Z,6.51
2023-01-20T06:11:02.036Z,6.52
2023-01-20T06:13:30.396Z,6.56
2023-01-20T06:15:58.124Z,6.56
2023-01-20T06:18:24.984Z,6.53
2023-01-20T06:20:51.791Z,6.53
2023-01-20T06:23:18.762Z,6.54
2023-01-20T06:25:45.561Z,6.56
2023-01-20T06:28:12.400Z,6.57
2023-01-20T06:30:41.261Z,6.51
2023-01-20T06:33:10.783Z,6.47
2023-01-20T06:35:37.920Z,6.41
2023-01-20T06:38:04.763Z,6.33
2023-01-20T06:40:31.833Z,6.27
2023-01-20T06:42:58.997Z,6.21
2023-01-20T06:45:25.896Z,6.20
2023-01-20T06:47:52.724Z,6.22
2023-01-20T06:50:19.604Z,6.25
2023-01-20T06:52:46.489Z,6.30
2023-01-20T06:55:13.514Z,6.37
2023-01-20T06:57:40.456Z,6.38
2023-01-20T07:00:09.005Z,6.35
2023-01-20T07:02:35.869Z,6.40
2023-01-20T07:05:03.201Z,6.51
2023-01-20T07:07:30.052Z,6.58
2023-01-20T07:09:56.934Z,6.58
2023-01-20T07:12:23.752Z,6.59
2023-01-20T07:14:50.658Z,6.57
2023-01-20T07:17:17.447Z,6.55
2023-01-20T07:19:44.327Z,6.55
2023-01-20T07:22:11.199Z,6.54
2023-01-20T07:24:37.957Z,6.53
2023-01-20T07:27:05.058Z,6.49
2023-01-20T07:29:31.903Z,6.50
2023-01-20T07:31:58.954Z,6.53
2023-01-20T07:34:25.839Z,6.58
2023-01-20T07:36:53.461Z,6.59
2023-01-20T07:39:20.466Z,6.65
2023-01-20T07:41:49.700Z,6.67
2023-01-20T07:44:16.723Z,6.73
2023-01-20T07:46:43.569Z,6.77
2023-01-20T07:49:12.341Z,6.75
2023-01-20T07:51:40.049Z,6.76
2023-01-20T07:54:06.911Z,6.76
2023-01-20T07:56:33.743Z,6.80
2023-01-20T07:59:00.545Z,6.86
2023-01-20T08:01:31.113Z,6.88
2023-01-20T08:04:00.548Z,6.90
2023-01-20T08:06:27.694Z,6.96
2023-01-20T08:08:55.758Z,7.02
2023-01-20T08:11:24.205Z,7.05
2023-01-20T08:13:51.019Z,7.09
2023-01-20T08:16:18.077Z,7.10
2023-01-20T08:18:45.211Z,7.14
2023-01-20T08:21:23.068Z,7.21
2023-01-20T08:23:50.263Z,7.26
2023-01-20T08:26:17.300Z,7.30
2023-01-20T08:28:44.168Z,7.40
2023-01-20T08:31:13.247Z,7.48
2023-01-20T08:33:40.353Z,7.56
2023-01-20T08:36:08.722Z,7.63
2023-01-20T08:38:35.813Z,7.72
2023-01-20T08:41:06.520Z,7.81
2023-01-20T08:43:37.966Z,7.88
2023-01-20T08:46:10.956Z,7.97
2023-01-20T08:48:38.286Z,8.08
2023-01-20T08:51:07.680Z,8.15
2023-01-20T08:53:34.775Z,8.22
2023-01-20T08:56:02.481Z,8.26
2023-01-20T08:58:29.460Z,8.28
2023-01-20T09:00:56.366Z,8.32
2023-01-20T09:03:23.249Z,8.37
2023-01-20T09:05:50.301Z,8.39
2023-01-20T09:08:18.516Z,8.43
2023-01-20T09:10:45.787Z,8.44
2023-01-20T09:13:12.699Z,8.46
2023-01-20T09:15:39.668Z,8.47
2023-01-20T09:18:06.720Z,8.48
2023-01-20T09:20:33.508Z,8.49
2023-01-20T09:23:03.447Z,8.54
2023-01-20T09:25:30.371Z,8.64
2023-01-20T09:28:00.864Z,8.74
2023-01-20T09:30:28.113Z,8.76
2023-01-20T09:32:58.013Z,8.76
2023-01-20T09:35:25.124Z,8.77
2023-01-20T09:38:11.174Z,8.76
2023-01-20T09:41:25.466Z,8.79
2023-01-20T09:43:54.617Z,8.87
2023-01-20T09:46:30.762Z,8.92
2023-01-20T09:49:25.510Z,8.94
2023-01-20T09:52:21.171Z,8.95
2023-01-20T09:54:50.584Z,8.99
2023-01-20T12:16:46.876Z,11.02
2023-01-20T12:19:16.032Z,11.03
2023-01-20T12:21:44.250Z,11.06
2023-01-20T12:24:52.673Z,11.10
2023-01-20T12:27:23.197Z,11.20
2023-01-20T12:29:50.658Z,11.28
2023-01-20T12:32:17.515Z,11.37
2023-01-20T12:34:44.299Z,11.46
2023-01-20T12:37:31.874Z,11.61
2023-01-20T12:40:08.049Z,11.73
2023-01-20T12:43:05.360Z,11.79
2023-01-20T12:45:44.491Z,11.77
2023-01-20T12:48:11.306Z,11.79
2023-01-20T12:51:00.349Z,11.77
2023-01-20T12:53:39.571Z,11.74
2023-01-20T12:56:17.289Z,11.71
2023-01-20T12:59:19.829Z,11.69
2023-01-20T13:01:52.773Z,11.58
2023-01-20T13:04:22.590Z,11.50
2023-01-20T13:06:52.934Z,11.50
2023-01-20T13:09:29.985Z,11.49
2023-01-20T13:12:12.223Z,11.44
2023-01-20T13:14:42.359Z,11.41
2023-01-20T13:17:31.677Z,11.40
2023-01-20T13:20:02.073Z,11.29
2023-01-20T13:22:28.963Z,11.25
2023-01-20T13:24:57.103Z,11.23
2023-01-20T13:27:28.947Z,11.21
2023-01-20T13:29:57.438Z,11.22
2023-01-20T13:32:33.440Z,11.25
2023-01-20T13:35:21.266Z,11.24
2023-01-20T13:37:59.103Z,11.21
2023-01-20T13:40:38.383Z,11.15
2023-01-20T13:43:26.781Z,11.10
2023-01-20T13:46:02.906Z,11.10
2023-01-20T13:48:30.978Z,11.08
2023-01-20T13:51:27.001Z,10.98
2023-01-20T13:53:54.084Z,10.91
2023-01-20T13:56:35.348Z,10.83
2023-01-20T13:59:02.232Z,10.80
2023-01-20T14:01:29.189Z,10.79
2023-01-20T14:04:06.427Z,10.74
2023-01-20T14:06:35.819Z,10.66
2023-01-20T14:09:03.122Z,10.63
2023-01-20T14:11:30.646Z,10.63
2023-01-20T14:13:59.553Z,10.60
2023-01-20T14:16:35.937Z,10.60
2023-01-20T14:19:28.058Z,10.60
2023-01-20T14:21:56.435Z,10.53
2023-01-20T14:24:36.895Z,10.46
2023-01-20T14:27:32.061Z,10.40
2023-01-20T14:30:18.660Z,10.38
2023-01-20T14:32:46.031Z,10.34
2023-01-20T14:35:31.402Z,10.29
2023-01-20T14:37:58.283Z,10.23
2023-01-20T14:40:26.325Z,10.17
2023-01-20T14:43:01.130Z,10.13
2023-01-20T14:45:29.404Z,10.06
2023-01-20T14:48:01.007Z,10.05
2023-01-20T14:50:28.776Z,10.07
2023-01-20T14:52:56.410Z,10.04
2023-01-20T14:55:36.513Z,9.97
2023-01-20T14:58:16.647Z,9.87
2023-01-20T15:00:44.663Z,9.80
2023-01-20T15:03:23.883Z,9.76
2023-01-20T15:05:55.283Z,9.71
2023-01-20T15:08:34.416Z,9.71
2023-01-20T15:11:18.310Z,9.67
2023-01-20T15:13:51.316Z,9.64
2023-01-20T15:16:30.562Z,9.53
2023-01-20T15:19:20.318Z,9.40
2023-01-20T15:21:50.056Z,9.32
2023-01-20T15:24:18.565Z,9.27
2023-01-20T15:26:46.538Z,9.19
2023-01-20T15:29:33.461Z,9.10
2023-01-20T15:40:17.309Z,9.03
2023-01-20T15:42:44.988Z,8.94
2023-01-20T15:45:13.990Z,8.92
2023-01-20T15:47:41.064Z,8.87
2023-01-20T15:50:21.724Z,8.77
2023-01-20T15:52:48.735Z,8.69
2023-01-20T15:55:16.922Z,8.60
2023-01-20T15:57:44.086Z,8.54
2023-01-20T16:00:18.853Z,8.46
2023-01-20T16:02:45.758Z,8.39
2023-01-20T16:05:15.744Z,8.32
2023-01-20T16:07:44.488Z,8.21
2023-01-20T16:10:16.861Z,8.13
2023-01-20T16:12:45.021Z,8.11
2023-01-20T16:15:16.604Z,8.07
2023-01-20T16:17:43.727Z,8.02
2023-01-20T16:20:30.901Z,7.99
2023-01-20T16:22:57.828Z,7.99
2023-01-20T16:25:24.983Z,7.99
2023-01-20T16:27:53.026Z,7.99
2023-01-20T16:30:20.939Z,7.99
2023-01-20T16:32:47.885Z,7.97
2023-01-20T16:35:17.112Z,7.91
2023-01-20T16:37:45.386Z,7.87
2023-01-20T16:40:14.513Z,7.88
2023-01-20T16:42:42.066Z,7.92
2023-01-20T16:45:20.797Z,7.95
2023-01-20T16:47:47.752Z,7.95
2023-01-20T16:50:15.320Z,7.94
2023-01-20T16:52:42.506Z,7.90
2023-01-20T16:55:13.320Z,7.88
2023-01-20T16:57:40.506Z,7.87
2023-01-20T17:00:08.714Z,7.87
2023-01-20T17:02:35.590Z,7.87
2023-01-20T17:05:02.426Z,7.87
2023-01-20T17:07:29.303Z,7.86
2023-01-20T17:09:57.597Z,7.83
2023-01-20T17:12:24.476Z,7.78
2023-01-20T17:14:52.292Z,7.71
2023-01-20T17:17:19.167Z,7.68
2023-01-20T17:19:46.021Z,7.68
2023-01-20T17:22:12.983Z,7.65
2023-01-20T17:24:39.765Z,7.61
2023-01-20T17:27:06.587Z,7.58
2023-01-20T17:29:33.412Z,7.53
2023-01-20T17:32:00.271Z,7.45
2023-01-20T17:34:27.408Z,7.41
2023-01-20T17:36:54.384Z,7.38
2023-01-20T17:39:21.187Z,7.35
2023-01-20T17:41:48.089Z,7.31
2023-01-20T17:44:15.131Z,7.27
2023-01-20T17:46:41.970Z,7.22
2023-01-20T17:49:09.045Z,7.17
2023-01-20T17:51:35.949Z,7.11
2023-01-20T17:54:04.098Z,7.07
2023-01-20T21:43:36.375Z,3.04
2023-01-20T21:46:03.764Z,2.98
2023-01-20T21:48:50.654Z,2.97
2023-01-20T21:51:36.183Z,2.98
2023-01-20T21:54:03.073Z,2.97
2023-01-20T21:56:31.384Z,2.97
2023-01-20T21:58:58.553Z,2.99
2023-01-20T22:01:27.939Z,3.02
2023-01-20T22:03:54.868Z,3.04
2023-01-20T22:06:21.854Z,3.06
2023-01-20T22:08:49.302Z,3.08
2023-01-20T22:11:16.217Z,3.05
2023-01-20T22:13:43.006Z,3.04
2023-01-20T22:16:10.055Z,3.06
2023-01-20T22:18:37.490Z,3.08
2023-01-20T22:21:05.145Z,3.08
2023-01-20T22:23:32.863Z,3.07
2023-01-20T22:26:00.042Z,3.06
2023-01-20T22:28:31.367Z,3.00
2023-01-20T22:31:05.574Z,2.93
2023-01-20T22:33:52.618Z,2.89
2023-01-20T22:36:38.034Z,2.92
2023-01-20T22:39:23.498Z,2.92
2023-01-20T22:41:50.438Z,2.97
2023-01-20T22:44:18.587Z,3.00
2023-01-20T22:46:46.110Z,2.94
2023-01-20T22:49:13.971Z,2.88
2023-01-20T22:51:43.495Z,2.80
2023-01-20T22:54:11.462Z,2.77
2023-01-20T22:56:39.928Z,2.81
2023-01-20T22:59:08.307Z,2.89
2023-01-20T23:01:36.127Z,2.93
2023-01-20T23:04:05.283Z,2.91
2023-01-20T23:06:34.424Z,2.86
2023-01-20T23:09:03.736Z,2.83
2023-01-20T23:11:31.161Z,2.84
2023-01-20T23:13:58.877Z,2.86
2023-01-20T23:16:26.061Z,2.91
2023-01-20T23:18:53.111Z,2.88
2023-01-20T23:21:23.682Z,2.84
2023-01-20T23:23:58.459Z,2.73
2023-01-20T23:26:29.803Z,2.61
2023-01-20T23:28:56.927Z,2.59
2023-01-20T23:31:24.955Z,2.61
2023-01-20T23:33:54.631Z,2.60
2023-01-20T23:36:23.587Z,2.61
2023-01-20T23:38:52.494Z,2.61
2023-01-20T23:41:20.101Z,2.60
2023-01-20T23:43:51.163Z,2.56
2023-01-20T23:46:18.400Z,2.54
2023-01-20T23:48:46.990Z,2.54
2023-01-20T23:51:15.184Z,2.54
2023-01-20T23:53:43.136Z,2.55
2023-01-20T23:56:15.556Z,2.52
2023-01-20T23:58:42.569Z,2.50
